sensor_id;sensor_type;location;lat;lon;timestamp;temperature;humidity
65864;SHT30;52639;51.180;20.460;2024-02-26T00:01:54;1.02;89.63
65864;SHT30;52639;51.180;20.460;2024-02-26T00:05:57;0.92;89.33
65864;SHT30;52639;51.180;20.460;2024-02-26T00:09:59;0.76;89.78
65864;SHT30;52639;51.180;20.460;2024-02-26T00:14:01;0.73;89.69
65864;SHT30;52639;51.180;20.460;2024-02-26T00:18:03;0.68;89.80
65864;SHT30;52639;51.180;20.460;2024-02-26T00:22:14;0.62;90.04
65864;SHT30;52639;51.180;20.460;2024-02-26T00:26:16;0.66;90.01
65864;SHT30;52639;51.180;20.460;2024-02-26T00:30:18;0.40;89.44
65864;SHT30;52639;51.180;20.460;2024-02-26T00:34:20;0.36;90.52
65864;SHT30;52639;51.180;20.460;2024-02-26T00:38:23;0.42;90.26
65864;SHT30;52639;51.180;20.460;2024-02-26T00:42:31;0.41;90.22
65864;SHT30;52639;51.180;20.460;2024-02-26T00:46:33;0.37;90.04
65864;SHT30;52639;51.180;20.460;2024-02-26T00:50:39;0.20;90.21
65864;SHT30;52639;51.180;20.460;2024-02-26T00:54:43;0.18;90.57
65864;SHT30;52639;51.180;20.460;2024-02-26T00:58:44;0.10;90.27
65864;SHT30;52639;51.180;20.460;2024-02-26T01:02:46;0.20;90.76
65864;SHT30;52639;51.180;20.460;2024-02-26T01:06:48;0.08;89.92
65864;SHT30;52639;51.180;20.460;2024-02-26T01:10:52;-0.06;90.38
65864;SHT30;52639;51.180;20.460;2024-02-26T01:14:54;0.03;90.64
65864;SHT30;52639;51.180;20.460;2024-02-26T01:18:55;-0.03;90.15
65864;SHT30;52639;51.180;20.460;2024-02-26T01:22:57;-0.16;90.07
65864;SHT30;52639;51.180;20.460;2024-02-26T01:27:01;-0.21;90.47
65864;SHT30;52639;51.180;20.460;2024-02-26T01:31:03;-0.14;90.93
65864;SHT30;52639;51.180;20.460;2024-02-26T01:35:07;-0.02;90.43
65864;SHT30;52639;51.180;20.460;2024-02-26T01:39:10;-0.16;90.70
65864;SHT30;52639;51.180;20.460;2024-02-26T01:43:14;-0.10;91.02
65864;SHT30;52639;51.180;20.460;2024-02-26T01:47:16;-0.02;90.55
65864;SHT30;52639;51.180;20.460;2024-02-26T01:51:18;-0.02;90.46
65864;SHT30;52639;51.180;20.460;2024-02-26T01:55:20;-0.06;90.31
65864;SHT30;52639;51.180;20.460;2024-02-26T01:59:25;-0.16;90.19
65864;SHT30;52639;51.180;20.460;2024-02-26T02:03:28;-0.23;90.62
65864;SHT30;52639;51.180;20.460;2024-02-26T02:07:30;-0.18;90.88
65864;SHT30;52639;51.180;20.460;2024-02-26T02:11:33;-0.24;90.94
65864;SHT30;52639;51.180;20.460;2024-02-26T02:15:36;-0.24;90.86
65864;SHT30;52639;51.180;20.460;2024-02-26T02:19:38;-0.37;90.75
65864;SHT30;52639;51.180;20.460;2024-02-26T02:23:41;-0.45;90.80
65864;SHT30;52639;51.180;20.460;2024-02-26T02:27:47;-0.45;90.48
65864;SHT30;52639;51.180;20.460;2024-02-26T02:35:53;-0.41;90.81
65864;SHT30;52639;51.180;20.460;2024-02-26T02:39:57;-0.36;90.72
65864;SHT30;52639;51.180;20.460;2024-02-26T02:43:59;-0.51;90.43
65864;SHT30;52639;51.180;20.460;2024-02-26T02:48:01;-0.56;90.76
65864;SHT30;52639;51.180;20.460;2024-02-26T02:52:03;-0.61;90.85
65864;SHT30;52639;51.180;20.460;2024-02-26T02:56:07;-0.69;90.56
65864;SHT30;52639;51.180;20.460;2024-02-26T03:00:09;-0.58;91.02
65864;SHT30;52639;51.180;20.460;2024-02-26T03:04:12;-0.51;90.79
65864;SHT30;52639;51.180;20.460;2024-02-26T03:08:14;-0.62;90.57
65864;SHT30;52639;51.180;20.460;2024-02-26T03:12:17;-0.74;90.54
65864;SHT30;52639;51.180;20.460;2024-02-26T03:16:19;-0.65;91.38
65864;SHT30;52639;51.180;20.460;2024-02-26T03:20:21;-0.58;91.23
65864;SHT30;52639;51.180;20.460;2024-02-26T03:24:23;-0.50;90.99
65864;SHT30;52639;51.180;20.460;2024-02-26T03:28:26;-0.54;91.06
65864;SHT30;52639;51.180;20.460;2024-02-26T03:32:28;-0.51;91.18
65864;SHT30;52639;51.180;20.460;2024-02-26T03:36:30;-0.62;91.19
65864;SHT30;52639;51.180;20.460;2024-02-26T03:40:32;-0.61;91.42
65864;SHT30;52639;51.180;20.460;2024-02-26T03:44:35;-0.57;91.71
65864;SHT30;52639;51.180;20.460;2024-02-26T03:48:37;-0.74;90.86
65864;SHT30;52639;51.180;20.460;2024-02-26T03:52:39;-0.79;90.88
65864;SHT30;52639;51.180;20.460;2024-02-26T03:56:41;-0.79;91.16
65864;SHT30;52639;51.180;20.460;2024-02-26T04:00:44;-0.64;91.40
65864;SHT30;52639;51.180;20.460;2024-02-26T04:04:54;-0.61;91.36
65864;SHT30;52639;51.180;20.460;2024-02-26T04:08:56;-0.64;90.71
65864;SHT30;52639;51.180;20.460;2024-02-26T04:12:58;-0.81;90.49
65864;SHT30;52639;51.180;20.460;2024-02-26T04:17:01;-0.79;90.87
65864;SHT30;52639;51.180;20.460;2024-02-26T04:21:03;-0.71;91.27
65864;SHT30;52639;51.180;20.460;2024-02-26T04:25:06;-0.72;91.55
65864;SHT30;52639;51.180;20.460;2024-02-26T04:29:08;-0.64;91.23
65864;SHT30;52639;51.180;20.460;2024-02-26T04:33:11;-0.77;90.40
65864;SHT30;52639;51.180;20.460;2024-02-26T04:37:13;-1.05;90.78
65864;SHT30;52639;51.180;20.460;2024-02-26T04:41:15;-1.17;91.27
65864;SHT30;52639;51.180;20.460;2024-02-26T04:45:17;-1.03;91.29
65864;SHT30;52639;51.180;20.460;2024-02-26T04:49:20;-1.15;91.25
65864;SHT30;52639;51.180;20.460;2024-02-26T04:53:22;-1.03;91.87
65864;SHT30;52639;51.180;20.460;2024-02-26T04:57:24;-1.15;91.50
65864;SHT30;52639;51.180;20.460;2024-02-26T05:01:26;-1.19;91.35
65864;SHT30;52639;51.180;20.460;2024-02-26T05:05:30;-1.20;91.63
65864;SHT30;52639;51.180;20.460;2024-02-26T05:09:31;-1.25;91.65
65864;SHT30;52639;51.180;20.460;2024-02-26T05:13:33;-1.33;91.79
65864;SHT30;52639;51.180;20.460;2024-02-26T05:17:35;-1.35;91.64
65864;SHT30;52639;51.180;20.460;2024-02-26T05:21:38;-1.36;91.64
65864;SHT30;52639;51.180;20.460;2024-02-26T05:25:40;-1.29;92.00
65864;SHT30;52639;51.180;20.460;2024-02-26T05:29:42;-1.23;91.92
65864;SHT30;52639;51.180;20.460;2024-02-26T05:33:45;-1.25;91.48
65864;SHT30;52639;51.180;20.460;2024-02-26T05:37:48;-1.25;91.67
65864;SHT30;52639;51.180;20.460;2024-02-26T05:41:50;-1.23;91.90
65864;SHT30;52639;51.180;20.460;2024-02-26T05:45:52;-1.22;91.65
65864;SHT30;52639;51.180;20.460;2024-02-26T05:49:53;-1.15;91.86
65864;SHT30;52639;51.180;20.460;2024-02-26T05:53:57;-1.03;92.24
65864;SHT30;52639;51.180;20.460;2024-02-26T05:57:59;-0.65;92.34
65864;SHT30;52639;51.180;20.460;2024-02-26T06:02:01;-0.48;92.06
65864;SHT30;52639;51.180;20.460;2024-02-26T06:06:03;-0.26;91.82
65864;SHT30;52639;51.180;20.460;2024-02-26T06:10:07;0.01;92.07
65864;SHT30;52639;51.180;20.460;2024-02-26T06:14:09;0.28;92.13
65864;SHT30;52639;51.180;20.460;2024-02-26T06:18:13;0.50;92.23
65864;SHT30;52639;51.180;20.460;2024-02-26T06:22:15;0.69;91.77
65864;SHT30;52639;51.180;20.460;2024-02-26T06:26:18;1.05;92.29
65864;SHT30;52639;51.180;20.460;2024-02-26T06:30:20;1.35;92.22
65864;SHT30;52639;51.180;20.460;2024-02-26T06:34:22;1.57;91.89
65864;SHT30;52639;51.180;20.460;2024-02-26T06:38:24;1.87;92.16
65864;SHT30;52639;51.180;20.460;2024-02-26T06:42:27;2.20;91.75
65864;SHT30;52639;51.180;20.460;2024-02-26T06:46:30;2.53;91.99
65864;SHT30;52639;51.180;20.460;2024-02-26T06:50:32;2.82;91.92
65864;SHT30;52639;51.180;20.460;2024-02-26T06:54:34;3.31;92.29
65864;SHT30;52639;51.180;20.460;2024-02-26T06:58:37;3.70;92.20
65864;SHT30;52639;51.180;20.460;2024-02-26T07:02:39;4.35;92.86
65864;SHT30;52639;51.180;20.460;2024-02-26T07:06:41;4.79;93.31
65864;SHT30;52639;51.180;20.460;2024-02-26T07:10:44;5.42;93.26
65864;SHT30;52639;51.180;20.460;2024-02-26T07:14:47;5.69;92.43
65864;SHT30;52639;51.180;20.460;2024-02-26T07:18:49;6.13;92.88
65864;SHT30;52639;51.180;20.460;2024-02-26T07:22:51;6.37;91.77
65864;SHT30;52639;51.180;20.460;2024-02-26T07:26:53;6.58;91.83
65864;SHT30;52639;51.180;20.460;2024-02-26T07:30:57;6.70;92.52
65864;SHT30;52639;51.180;20.460;2024-02-26T07:34:59;6.91;93.15
65864;SHT30;52639;51.180;20.460;2024-02-26T07:39:01;7.08;92.42
65864;SHT30;52639;51.180;20.460;2024-02-26T07:43:03;7.16;92.85
65864;SHT30;52639;51.180;20.460;2024-02-26T07:47:07;7.33;93.66
65864;SHT30;52639;51.180;20.460;2024-02-26T07:51:09;7.59;93.73
65864;SHT30;52639;51.180;20.460;2024-02-26T07:55:13;7.66;93.06
65864;SHT30;52639;51.180;20.460;2024-02-26T07:59:15;7.90;93.53
65864;SHT30;52639;51.180;20.460;2024-02-26T08:03:19;8.23;92.83
65864;SHT30;52639;51.180;20.460;2024-02-26T08:07:21;8.62;92.77
65864;SHT30;52639;51.180;20.460;2024-02-26T08:11:24;8.86;92.39
65864;SHT30;52639;51.180;20.460;2024-02-26T08:15:26;9.06;92.00
65864;SHT30;52639;51.180;20.460;2024-02-26T08:19:29;9.26;90.13
65864;SHT30;52639;51.180;20.460;2024-02-26T08:23:31;9.56;90.68
65864;SHT30;52639;51.180;20.460;2024-02-26T08:27:33;10.21;89.79
65864;SHT30;52639;51.180;20.460;2024-02-26T08:31:35;10.34;87.92
65864;SHT30;52639;51.180;20.460;2024-02-26T08:35:39;12.89;82.66
65864;SHT30;52639;51.180;20.460;2024-02-26T08:39:41;14.58;74.70
65864;SHT30;52639;51.180;20.460;2024-02-26T08:43:43;15.68;72.26
65864;SHT30;52639;51.180;20.460;2024-02-26T08:47:45;16.15;69.67
65864;SHT30;52639;51.180;20.460;2024-02-26T08:51:48;16.42;69.11
65864;SHT30;52639;51.180;20.460;2024-02-26T08:55:50;17.21;69.11
65864;SHT30;52639;51.180;20.460;2024-02-26T08:59:52;17.50;66.49
65864;SHT30;52639;51.180;20.460;2024-02-26T09:03:54;17.72;67.38
65864;SHT30;52639;51.180;20.460;2024-02-26T09:07:58;18.33;64.99
65864;SHT30;52639;51.180;20.460;2024-02-26T09:12:00;18.18;62.65
65864;SHT30;52639;51.180;20.460;2024-02-26T09:16:02;17.85;69.65
65864;SHT30;52639;51.180;20.460;2024-02-26T09:20:04;18.15;62.22
65864;SHT30;52639;51.180;20.460;2024-02-26T09:24:08;18.63;68.68
65864;SHT30;52639;51.180;20.460;2024-02-26T09:28:10;19.32;61.99
65864;SHT30;52639;51.180;20.460;2024-02-26T09:32:12;19.13;61.75
65864;SHT30;52639;51.180;20.460;2024-02-26T09:36:13;19.51;60.97
65864;SHT30;52639;51.180;20.460;2024-02-26T09:40:17;19.45;56.75
65864;SHT30;52639;51.180;20.460;2024-02-26T09:44:20;19.35;56.05
65864;SHT30;52639;51.180;20.460;2024-02-26T09:48:22;19.31;68.36
65864;SHT30;52639;51.180;20.460;2024-02-26T09:52:24;18.50;66.98
65864;SHT30;52639;51.180;20.460;2024-02-26T09:56:28;17.47;61.30
65864;SHT30;52639;51.180;20.460;2024-02-26T10:00:30;17.88;62.57
65864;SHT30;52639;51.180;20.460;2024-02-26T10:04:34;16.59;59.71
65864;SHT30;52639;51.180;20.460;2024-02-26T10:08:36;17.51;61.93
65864;SHT30;52639;51.180;20.460;2024-02-26T10:12:40;18.56;58.10
65864;SHT30;52639;51.180;20.460;2024-02-26T10:16:46;18.24;55.47
65864;SHT30;52639;51.180;20.460;2024-02-26T10:20:58;19.03;59.66
65864;SHT30;52639;51.180;20.460;2024-02-26T10:25:00;16.75;61.70
65864;SHT30;52639;51.180;20.460;2024-02-26T10:29:03;14.82;68.02
65864;SHT30;52639;51.180;20.460;2024-02-26T10:33:05;14.76;71.92
65864;SHT30;52639;51.180;20.460;2024-02-26T10:37:09;14.83;67.53
65864;SHT30;52639;51.180;20.460;2024-02-26T10:41:13;14.39;69.63
65864;SHT30;52639;51.180;20.460;2024-02-26T10:45:17;13.78;69.00
65864;SHT30;52639;51.180;20.460;2024-02-26T10:49:19;13.27;70.77
65864;SHT30;52639;51.180;20.460;2024-02-26T10:53:21;13.14;73.83
65864;SHT30;52639;51.180;20.460;2024-02-26T10:57:24;13.06;75.37
65864;SHT30;52639;51.180;20.460;2024-02-26T11:01:27;13.34;73.01
65864;SHT30;52639;51.180;20.460;2024-02-26T11:05:31;13.66;72.42
65864;SHT30;52639;51.180;20.460;2024-02-26T11:09:34;13.92;69.15
65864;SHT30;52639;51.180;20.460;2024-02-26T11:13:37;13.84;71.67
65864;SHT30;52639;51.180;20.460;2024-02-26T11:17:42;13.56;69.37
65864;SHT30;52639;51.180;20.460;2024-02-26T11:21:45;13.64;70.16
65864;SHT30;52639;51.180;20.460;2024-02-26T11:25:48;13.19;70.21
65864;SHT30;52639;51.180;20.460;2024-02-26T11:29:52;12.72;71.76
65864;SHT30;52639;51.180;20.460;2024-02-26T11:33:58;12.52;73.57
65864;SHT30;52639;51.180;20.460;2024-02-26T11:38:00;12.27;73.33
65864;SHT30;52639;51.180;20.460;2024-02-26T11:42:04;12.08;73.84
65864;SHT30;52639;51.180;20.460;2024-02-26T11:46:09;12.01;74.85
65864;SHT30;52639;51.180;20.460;2024-02-26T11:50:36;11.84;75.66
65864;SHT30;52639;51.180;20.460;2024-02-26T11:54:43;11.90;75.74
65864;SHT30;52639;51.180;20.460;2024-02-26T11:58:45;12.05;75.71
65864;SHT30;52639;51.180;20.460;2024-02-26T12:02:49;12.29;75.77
65864;SHT30;52639;51.180;20.460;2024-02-26T12:06:55;12.46;74.98
65864;SHT30;52639;51.180;20.460;2024-02-26T12:10:57;12.45;75.38
65864;SHT30;52639;51.180;20.460;2024-02-26T12:15:03;12.53;75.93
65864;SHT30;52639;51.180;20.460;2024-02-26T12:19:05;12.44;76.22
65864;SHT30;52639;51.180;20.460;2024-02-26T12:23:08;12.31;75.76
65864;SHT30;52639;51.180;20.460;2024-02-26T12:27:10;12.37;75.84
65864;SHT30;52639;51.180;20.460;2024-02-26T12:31:12;12.52;75.52
65864;SHT30;52639;51.180;20.460;2024-02-26T12:35:14;12.72;74.39
65864;SHT30;52639;51.180;20.460;2024-02-26T12:39:18;12.99;74.35
65864;SHT30;52639;51.180;20.460;2024-02-26T12:43:21;13.13;72.47
65864;SHT30;52639;51.180;20.460;2024-02-26T12:47:23;13.16;73.79
65864;SHT30;52639;51.180;20.460;2024-02-26T12:51:25;13.20;73.89
65864;SHT30;52639;51.180;20.460;2024-02-26T12:55:28;13.36;73.34
65864;SHT30;52639;51.180;20.460;2024-02-26T12:59:32;13.39;73.75
65864;SHT30;52639;51.180;20.460;2024-02-26T13:03:34;13.43;74.29
65864;SHT30;52639;51.180;20.460;2024-02-26T13:07:40;13.23;73.97
65864;SHT30;52639;51.180;20.460;2024-02-26T13:11:43;13.07;74.90
65864;SHT30;52639;51.180;20.460;2024-02-26T13:15:45;13.03;75.63
65864;SHT30;52639;51.180;20.460;2024-02-26T13:19:50;13.03;75.40
65864;SHT30;52639;51.180;20.460;2024-02-26T13:23:53;12.99;76.04
65864;SHT30;52639;51.180;20.460;2024-02-26T13:28:05;13.03;76.52
65864;SHT30;52639;51.180;20.460;2024-02-26T13:32:07;13.16;76.39
65864;SHT30;52639;51.180;20.460;2024-02-26T13:36:13;13.27;76.25
65864;SHT30;52639;51.180;20.460;2024-02-26T13:40:15;13.13;76.27
65864;SHT30;52639;51.180;20.460;2024-02-26T13:44:19;13.02;76.65
65864;SHT30;52639;51.180;20.460;2024-02-26T13:48:21;12.90;76.82
65864;SHT30;52639;51.180;20.460;2024-02-26T13:52:23;12.82;77.62
65864;SHT30;52639;51.180;20.460;2024-02-26T13:56:26;12.83;77.16
65864;SHT30;52639;51.180;20.460;2024-02-26T14:00:32;12.92;77.48
65864;SHT30;52639;51.180;20.460;2024-02-26T14:04:36;12.90;77.57
65864;SHT30;52639;51.180;20.460;2024-02-26T14:08:38;12.93;77.50
65864;SHT30;52639;51.180;20.460;2024-02-26T14:12:40;12.97;77.70
65864;SHT30;52639;51.180;20.460;2024-02-26T14:16:44;12.96;77.74
65864;SHT30;52639;51.180;20.460;2024-02-26T14:20:46;12.93;78.00
65864;SHT30;52639;51.180;20.460;2024-02-26T14:24:47;12.90;77.86
65864;SHT30;52639;51.180;20.460;2024-02-26T14:28:49;12.89;77.79
65864;SHT30;52639;51.180;20.460;2024-02-26T14:32:53;12.92;78.30
65864;SHT30;52639;51.180;20.460;2024-02-26T14:36:55;12.85;78.38
65864;SHT30;52639;51.180;20.460;2024-02-26T14:40:57;12.75;78.43
65864;SHT30;52639;51.180;20.460;2024-02-26T14:44:59;12.68;78.62
65864;SHT30;52639;51.180;20.460;2024-02-26T14:49:02;12.59;79.01
65864;SHT30;52639;51.180;20.460;2024-02-26T14:53:09;12.55;79.11
65864;SHT30;52639;51.180;20.460;2024-02-26T14:57:11;12.52;79.23
65864;SHT30;52639;51.180;20.460;2024-02-26T15:01:14;12.46;79.48
65864;SHT30;52639;51.180;20.460;2024-02-26T15:05:17;12.41;79.76
65864;SHT30;52639;51.180;20.460;2024-02-26T15:09:20;12.39;79.75
65864;SHT30;52639;51.180;20.460;2024-02-26T15:13:22;12.39;80.08
65864;SHT30;52639;51.180;20.460;2024-02-26T15:17:25;12.32;80.06
65864;SHT30;52639;51.180;20.460;2024-02-26T15:21:30;12.24;80.56
65864;SHT30;52639;51.180;20.460;2024-02-26T15:25:32;12.17;80.50
65864;SHT30;52639;51.180;20.460;2024-02-26T15:29:34;12.08;80.60
65864;SHT30;52639;51.180;20.460;2024-02-26T15:33:40;12.01;80.96
65864;SHT30;52639;51.180;20.460;2024-02-26T15:37:46;11.93;81.18
65864;SHT30;52639;51.180;20.460;2024-02-26T15:41:48;11.81;81.37
65864;SHT30;52639;51.180;20.460;2024-02-26T15:45:50;11.63;81.69
65864;SHT30;52639;51.180;20.460;2024-02-26T15:49:52;11.57;82.08
65864;SHT30;52639;51.180;20.460;2024-02-26T15:53:56;11.50;82.16
65864;SHT30;52639;51.180;20.460;2024-02-26T15:57:59;11.37;82.75
65864;SHT30;52639;51.180;20.460;2024-02-26T16:02:01;11.19;83.16
65864;SHT30;52639;51.180;20.460;2024-02-26T16:06:03;11.05;83.56
65864;SHT30;52639;51.180;20.460;2024-02-26T16:10:07;10.93;83.73
65864;SHT30;52639;51.180;20.460;2024-02-26T16:14:11;10.85;84.11
65864;SHT30;52639;51.180;20.460;2024-02-26T16:18:14;10.93;83.96
65864;SHT30;52639;51.180;20.460;2024-02-26T16:22:16;10.85;83.97
65864;SHT30;52639;51.180;20.460;2024-02-26T16:26:19;10.92;83.95
65864;SHT30;52639;51.180;20.460;2024-02-26T16:30:22;10.78;84.15
65864;SHT30;52639;51.180;20.460;2024-02-26T16:34:24;10.85;84.15
65864;SHT30;52639;51.180;20.460;2024-02-26T16:38:26;10.86;84.50
65864;SHT30;52639;51.180;20.460;2024-02-26T16:42:29;10.86;84.75
65864;SHT30;52639;51.180;20.460;2024-02-26T16:46:31;10.86;84.36
65864;SHT30;52639;51.180;20.460;2024-02-26T16:50:33;10.69;84.30
65864;SHT30;52639;51.180;20.460;2024-02-26T16:54:35;10.73;84.52
65864;SHT30;52639;51.180;20.460;2024-02-26T16:58:38;10.58;84.65
65864;SHT30;52639;51.180;20.460;2024-02-26T17:02:40;10.56;85.31
65864;SHT30;52639;51.180;20.460;2024-02-26T17:06:43;10.58;85.00
65864;SHT30;52639;51.180;20.460;2024-02-26T17:10:45;10.64;84.58
65864;SHT30;52639;51.180;20.460;2024-02-26T17:14:49;10.64;85.07
65864;SHT30;52639;51.180;20.460;2024-02-26T17:18:51;10.65;84.97
65864;SHT30;52639;51.180;20.460;2024-02-26T17:22:53;10.73;84.95
65864;SHT30;52639;51.180;20.460;2024-02-26T17:26:55;10.82;85.29
65864;SHT30;52639;51.180;20.460;2024-02-26T17:30:58;10.85;84.65
65864;SHT30;52639;51.180;20.460;2024-02-26T17:35:00;10.82;84.63
65864;SHT30;52639;51.180;20.460;2024-02-26T17:39:04;10.80;84.44
65864;SHT30;52639;51.180;20.460;2024-02-26T17:43:07;10.71;84.48
65864;SHT30;52639;51.180;20.460;2024-02-26T17:47:10;10.75;84.41
65864;SHT30;52639;51.180;20.460;2024-02-26T17:51:13;10.71;84.44
65864;SHT30;52639;51.180;20.460;2024-02-26T17:55:15;10.71;84.37
65864;SHT30;52639;51.180;20.460;2024-02-26T17:59:17;10.64;84.49
65864;SHT30;52639;51.180;20.460;2024-02-26T18:03:20;10.55;84.92
65864;SHT30;52639;51.180;20.460;2024-02-26T18:07:22;10.58;85.16
65864;SHT30;52639;51.180;20.460;2024-02-26T18:11:24;10.56;84.95
65864;SHT30;52639;51.180;20.460;2024-02-26T18:15:26;10.51;84.87
65864;SHT30;52639;51.180;20.460;2024-02-26T18:19:30;10.38;85.19
65864;SHT30;52639;51.180;20.460;2024-02-26T18:23:33;10.44;85.21
65864;SHT30;52639;51.180;20.460;2024-02-26T18:27:35;10.66;84.82
65864;SHT30;52639;51.180;20.460;2024-02-26T18:31:38;10.88;84.67
65864;SHT30;52639;51.180;20.460;2024-02-26T18:35:41;11.00;83.57
65864;SHT30;52639;51.180;20.460;2024-02-26T18:39:43;11.12;83.42
65864;SHT30;52639;51.180;20.460;2024-02-26T18:43:45;11.18;82.62
65864;SHT30;52639;51.180;20.460;2024-02-26T18:47:47;11.24;82.09
65864;SHT30;52639;51.180;20.460;2024-02-26T18:51:51;11.16;82.12
65864;SHT30;52639;51.180;20.460;2024-02-26T18:55:53;11.08;82.05
65864;SHT30;52639;51.180;20.460;2024-02-26T19:00:03;11.08;82.57
65864;SHT30;52639;51.180;20.460;2024-02-26T19:04:06;11.13;82.15
65864;SHT30;52639;51.180;20.460;2024-02-26T19:08:09;11.08;82.17
65864;SHT30;52639;51.180;20.460;2024-02-26T19:12:11;11.15;81.77
65864;SHT30;52639;51.180;20.460;2024-02-26T19:16:14;11.12;82.18
65864;SHT30;52639;51.180;20.460;2024-02-26T19:20:16;11.13;82.24
65864;SHT30;52639;51.180;20.460;2024-02-26T19:24:20;11.19;82.02
65864;SHT30;52639;51.180;20.460;2024-02-26T19:28:22;11.24;81.37
65864;SHT30;52639;51.180;20.460;2024-02-26T19:32:24;11.16;81.40
65864;SHT30;52639;51.180;20.460;2024-02-26T19:36:26;11.15;81.96
65864;SHT30;52639;51.180;20.460;2024-02-26T19:40:29;11.33;81.73
65864;SHT30;52639;51.180;20.460;2024-02-26T19:44:31;11.36;81.31
65864;SHT30;52639;51.180;20.460;2024-02-26T19:48:33;11.47;80.54
65864;SHT30;52639;51.180;20.460;2024-02-26T19:52:38;11.70;80.83
65864;SHT30;52639;51.180;20.460;2024-02-26T19:56:41;11.64;80.32
65864;SHT30;52639;51.180;20.460;2024-02-26T20:00:49;11.63;80.23
65864;SHT30;52639;51.180;20.460;2024-02-26T20:04:51;11.67;80.01
65864;SHT30;52639;51.180;20.460;2024-02-26T20:08:53;11.69;80.07
65864;SHT30;52639;51.180;20.460;2024-02-26T20:12:56;11.80;79.78
65864;SHT30;52639;51.180;20.460;2024-02-26T20:17:00;11.80;80.36
65864;SHT30;52639;51.180;20.460;2024-02-26T20:21:03;11.83;79.39
65864;SHT30;52639;51.180;20.460;2024-02-26T20:25:08;11.78;80.15
65864;SHT30;52639;51.180;20.460;2024-02-26T20:29:18;11.83;80.08
65864;SHT30;52639;51.180;20.460;2024-02-26T20:33:20;11.83;79.47
65864;SHT30;52639;51.180;20.460;2024-02-26T20:37:31;11.81;79.84
65864;SHT30;52639;51.180;20.460;2024-02-26T20:41:32;11.73;79.75
65864;SHT30;52639;51.180;20.460;2024-02-26T20:45:36;11.73;80.65
65864;SHT30;52639;51.180;20.460;2024-02-26T20:49:39;11.63;80.62
65864;SHT30;52639;51.180;20.460;2024-02-26T20:53:43;11.61;81.06
65864;SHT30;52639;51.180;20.460;2024-02-26T20:57:45;11.54;80.01
65864;SHT30;52639;51.180;20.460;2024-02-26T21:01:49;11.47;80.85
65864;SHT30;52639;51.180;20.460;2024-02-26T21:05:51;11.30;80.95
65864;SHT30;52639;51.180;20.460;2024-02-26T21:09:52;11.37;81.57
65864;SHT30;52639;51.180;20.460;2024-02-26T21:13:55;11.46;81.12
65864;SHT30;52639;51.180;20.460;2024-02-26T21:17:58;11.43;81.23
65864;SHT30;52639;51.180;20.460;2024-02-26T21:22:00;11.30;81.33
65864;SHT30;52639;51.180;20.460;2024-02-26T21:26:02;11.32;81.52
65864;SHT30;52639;51.180;20.460;2024-02-26T21:30:06;11.27;81.81
65864;SHT30;52639;51.180;20.460;2024-02-26T21:34:10;11.26;81.84
65864;SHT30;52639;51.180;20.460;2024-02-26T21:38:15;11.27;81.96
65864;SHT30;52639;51.180;20.460;2024-02-26T21:42:20;11.36;82.25
65864;SHT30;52639;51.180;20.460;2024-02-26T21:46:22;11.43;81.28
65864;SHT30;52639;51.180;20.460;2024-02-26T21:50:26;11.29;81.41
65864;SHT30;52639;51.180;20.460;2024-02-26T21:54:31;11.34;81.75
65864;SHT30;52639;51.180;20.460;2024-02-26T21:58:33;11.33;81.96
65864;SHT30;52639;51.180;20.460;2024-02-26T22:02:35;11.20;81.77
65864;SHT30;52639;51.180;20.460;2024-02-26T22:06:39;11.10;82.11
65864;SHT30;52639;51.180;20.460;2024-02-26T22:10:42;11.00;82.08
65864;SHT30;52639;51.180;20.460;2024-02-26T22:14:46;10.69;82.66
65864;SHT30;52639;51.180;20.460;2024-02-26T22:18:48;10.30;82.48
65864;SHT30;52639;51.180;20.460;2024-02-26T22:22:51;9.93;83.24
65864;SHT30;52639;51.180;20.460;2024-02-26T22:26:55;9.69;84.42
65864;SHT30;52639;51.180;20.460;2024-02-26T22:30:57;9.35;84.96
65864;SHT30;52639;51.180;20.460;2024-02-26T22:34:59;9.14;85.43
65864;SHT30;52639;51.180;20.460;2024-02-26T22:39:03;8.92;86.94
65864;SHT30;52639;51.180;20.460;2024-02-26T22:43:05;8.64;86.93
65864;SHT30;52639;51.180;20.460;2024-02-26T22:47:07;8.54;86.81
65864;SHT30;52639;51.180;20.460;2024-02-26T22:51:16;8.45;88.05
65864;SHT30;52639;51.180;20.460;2024-02-26T22:55:19;8.55;87.89
65864;SHT30;52639;51.180;20.460;2024-02-26T22:59:25;8.71;88.20
65864;SHT30;52639;51.180;20.460;2024-02-26T23:03:27;8.58;87.57
65864;SHT30;52639;51.180;20.460;2024-02-26T23:07:29;8.28;86.31
65864;SHT30;52639;51.180;20.460;2024-02-26T23:11:32;7.98;88.05
65864;SHT30;52639;51.180;20.460;2024-02-26T23:15:34;7.82;87.77
65864;SHT30;52639;51.180;20.460;2024-02-26T23:19:36;7.56;88.02
65864;SHT30;52639;51.180;20.460;2024-02-26T23:23:38;7.22;87.77
65864;SHT30;52639;51.180;20.460;2024-02-26T23:27:57;7.21;87.86
65864;SHT30;52639;51.180;20.460;2024-02-26T23:32:00;6.88;88.85
65864;SHT30;52639;51.180;20.460;2024-02-26T23:36:02;7.08;89.11
65864;SHT30;52639;51.180;20.460;2024-02-26T23:40:04;7.35;91.08
65864;SHT30;52639;51.180;20.460;2024-02-26T23:44:08;7.22;89.53
65864;SHT30;52639;51.180;20.460;2024-02-26T23:48:10;7.33;89.61
65864;SHT30;52639;51.180;20.460;2024-02-26T23:52:12;7.46;89.22
65864;SHT30;52639;51.180;20.460;2024-02-26T23:56:14;7.41;89.90
